createdAt,value
2018-09-13T00:02:04.985Z,100.00
2018-09-13T00:04:33.163Z,100.00
2018-09-13T00:07:01.297Z,100.00
2018-09-13T00:09:29.436Z,100.00
2018-09-13T00:11:57.596Z,100.00
2018-09-13T00:14:25.771Z,100.00
2018-09-13T00:16:53.888Z,100.00
2018-09-13T00:19:22.019Z,100.00
2018-09-13T00:21:50.115Z,100.00
2018-09-13T00:24:18.195Z,100.00
2018-09-13T00:26:46.775Z,100.00
2018-09-13T00:29:14.872Z,100.00
2018-09-13T00:31:43.090Z,100.00
2018-09-13T00:34:11.323Z,100.00
2018-09-13T00:36:39.424Z,100.00
2018-09-13T00:39:08.243Z,100.00
2018-09-13T00:41:36.460Z,100.00
2018-09-13T00:44:04.673Z,100.00
2018-09-13T00:46:33.014Z,100.00
2018-09-13T00:49:01.099Z,100.00
2018-09-13T00:51:29.177Z,100.00
2018-09-13T00:53:57.411Z,100.00
2018-09-13T00:56:25.501Z,100.00
2018-09-13T00:58:53.679Z,100.00
2018-09-13T01:01:21.854Z,100.00
2018-09-13T01:03:49.963Z,100.00
2018-09-13T01:06:18.057Z,100.00
2018-09-13T01:08:46.196Z,100.00
2018-09-13T01:11:14.255Z,100.00
2018-09-13T01:13:43.527Z,100.00
2018-09-13T01:16:11.630Z,100.00
2018-09-13T01:18:39.772Z,100.00
2018-09-13T01:21:07.922Z,100.00
2018-09-13T01:23:36.059Z,100.00
2018-09-13T01:26:04.363Z,100.00
2018-09-13T01:28:32.495Z,100.00
2018-09-13T01:31:00.593Z,100.00
2018-09-13T01:33:28.713Z,100.00
2018-09-13T01:35:56.823Z,100.00
2018-09-13T01:38:24.915Z,100.00
2018-09-13T01:40:52.990Z,100.00
2018-09-13T01:43:21.081Z,100.00
2018-09-13T01:45:49.168Z,100.00
2018-09-13T01:48:17.257Z,100.00
2018-09-13T01:50:45.385Z,100.00
2018-09-13T01:53:13.497Z,100.00
2018-09-13T01:55:41.616Z,100.00
2018-09-13T01:58:09.780Z,100.00
2018-09-13T02:00:37.858Z,100.00
2018-09-13T02:03:06.009Z,100.00
2018-09-13T02:05:34.086Z,100.00
2018-09-13T02:08:02.191Z,100.00
2018-09-13T02:10:30.290Z,100.00
2018-09-13T02:12:58.447Z,100.00
2018-09-13T02:15:26.563Z,100.00
2018-09-13T02:17:54.662Z,100.00
2018-09-13T02:20:22.739Z,100.00
2018-09-13T02:22:50.878Z,100.00
2018-09-13T02:25:18.975Z,100.00
2018-09-13T02:27:47.055Z,100.00
2018-09-13T02:30:15.191Z,100.00
2018-09-13T02:32:43.303Z,100.00
2018-09-13T02:35:11.421Z,100.00
2018-09-13T02:37:39.536Z,100.00
2018-09-13T02:40:07.661Z,100.00
2018-09-13T02:42:35.812Z,100.00
2018-09-13T02:45:03.946Z,100.00
2018-09-13T02:47:32.096Z,100.00
2018-09-13T02:50:00.208Z,100.00
2018-09-13T02:52:28.376Z,100.00
2018-09-13T02:54:56.489Z,100.00
2018-09-13T02:57:24.582Z,100.00
2018-09-13T02:59:52.716Z,100.00
2018-09-13T03:02:20.864Z,100.00
2018-09-13T03:04:49.005Z,100.00
2018-09-13T03:07:17.103Z,100.00
2018-09-13T03:09:45.215Z,100.00
2018-09-13T03:12:13.341Z,100.00
2018-09-13T03:14:41.463Z,100.00
2018-09-13T03:17:09.557Z,100.00
2018-09-13T03:19:37.664Z,100.00
2018-09-13T03:22:05.756Z,100.00
2018-09-13T03:24:33.898Z,100.00
2018-09-13T03:27:02.025Z,100.00
2018-09-13T03:29:30.191Z,100.00
2018-09-13T03:31:58.319Z,100.00
2018-09-13T03:34:26.466Z,100.00
2018-09-13T03:36:54.577Z,100.00
2018-09-13T03:39:22.669Z,100.00
2018-09-13T03:41:50.833Z,100.00
2018-09-13T03:44:18.915Z,100.00
2018-09-13T03:46:46.979Z,100.00
2018-09-13T03:49:15.065Z,100.00
2018-09-13T03:51:43.177Z,100.00
2018-09-13T03:54:11.336Z,100.00
2018-09-13T03:56:39.458Z,100.00
2018-09-13T03:59:07.647Z,100.00
2018-09-13T04:01:35.743Z,100.00
2018-09-13T04:04:03.876Z,100.00
2018-09-13T04:06:31.978Z,100.00
2018-09-13T04:09:00.099Z,100.00
2018-09-13T04:11:28.220Z,100.00
2018-09-13T04:13:56.342Z,100.00
2018-09-13T04:16:24.467Z,100.00
2018-09-13T04:18:52.640Z,100.00
2018-09-13T04:21:20.724Z,100.00
2018-09-13T04:23:48.840Z,100.00
2018-09-13T04:26:16.955Z,100.00
2018-09-13T04:28:45.059Z,100.00
2018-09-13T04:31:13.183Z,100.00
2018-09-13T04:33:41.786Z,100.00
2018-09-13T04:36:10.071Z,100.00
2018-09-13T04:38:38.066Z,100.00
2018-09-13T04:41:06.644Z,100.00
2018-09-13T04:43:34.759Z,100.00
2018-09-13T04:46:02.886Z,100.00
2018-09-13T04:48:32.259Z,100.00
2018-09-13T04:51:00.363Z,100.00
2018-09-13T04:53:28.463Z,100.00
2018-09-13T04:55:56.586Z,100.00
2018-09-13T04:58:24.835Z,100.00
2018-09-13T05:00:53.252Z,100.00
2018-09-13T05:03:21.371Z,100.00
2018-09-13T05:05:49.501Z,100.00
2018-09-13T05:08:17.619Z,100.00
2018-09-13T05:10:45.704Z,100.00
2018-09-13T05:13:13.825Z,100.00
2018-09-13T05:15:41.961Z,100.00
2018-09-13T05:18:10.061Z,100.00
2018-09-13T05:20:38.200Z,100.00
2018-09-13T05:23:06.515Z,100.00
2018-09-13T05:25:34.653Z,100.00
2018-09-13T05:28:02.780Z,100.00
2018-09-13T05:30:30.986Z,100.00
2018-09-13T05:32:59.080Z,100.00
2018-09-13T05:35:27.203Z,100.00
2018-09-13T05:37:55.310Z,100.00
2018-09-13T05:40:23.420Z,100.00
2018-09-13T05:42:51.513Z,100.00
2018-09-13T05:45:19.605Z,100.00
2018-09-13T05:47:47.714Z,100.00
2018-09-13T05:50:15.817Z,100.00
2018-09-13T05:52:43.919Z,100.00
2018-09-13T05:55:12.043Z,100.00
2018-09-13T05:57:40.159Z,100.00
2018-09-13T06:00:08.267Z,100.00
2018-09-13T06:02:36.351Z,100.00
2018-09-13T06:05:04.477Z,100.00
2018-09-13T06:07:32.602Z,100.00
2018-09-13T06:10:00.719Z,100.00
2018-09-13T06:12:28.811Z,100.00
2018-09-13T06:14:56.976Z,100.00
2018-09-13T06:17:25.094Z,100.00
2018-09-13T06:19:54.055Z,100.00
2018-09-13T06:22:22.153Z,100.00
2018-09-13T06:24:50.246Z,100.00
2018-09-13T06:27:18.328Z,100.00
2018-09-13T06:29:47.147Z,100.00
2018-09-13T06:32:15.293Z,100.00
2018-09-13T06:34:43.422Z,100.00
2018-09-13T06:37:11.524Z,100.00
2018-09-13T06:39:39.579Z,100.00
2018-09-13T06:42:07.687Z,100.00
2018-09-13T06:44:35.795Z,100.00
2018-09-13T06:47:03.936Z,100.00
2018-09-13T06:49:32.020Z,100.00
2018-09-13T06:52:00.088Z,100.00
2018-09-13T06:54:28.182Z,100.00
2018-09-13T06:56:56.305Z,100.00
2018-09-13T06:59:24.411Z,100.00
2018-09-13T07:01:52.551Z,100.00
2018-09-13T07:04:20.752Z,100.00
2018-09-13T07:06:48.859Z,99.67
2018-09-13T07:09:16.949Z,98.19
2018-09-13T07:11:45.722Z,98.68
2018-09-13T07:14:13.853Z,98.10
2018-09-13T07:16:42.036Z,97.46
2018-09-13T07:19:10.216Z,95.64
2018-09-13T07:21:38.335Z,95.70
2018-09-13T07:24:06.463Z,95.11
2018-09-13T07:26:34.623Z,94.25
2018-09-13T07:29:02.710Z,94.03
2018-09-13T07:31:30.788Z,95.46
2018-09-13T07:33:58.890Z,93.35
2018-09-13T07:36:27.024Z,93.28
2018-09-13T07:38:55.107Z,93.26
2018-09-13T07:41:23.194Z,92.33
2018-09-13T07:43:51.268Z,92.03
2018-09-13T07:46:19.327Z,88.53
2018-09-13T07:48:47.392Z,89.87
2018-09-13T07:51:15.491Z,83.76
2018-09-13T07:53:43.564Z,86.61
2018-09-13T07:56:11.620Z,86.81
2018-09-13T07:58:39.702Z,87.24
2018-09-13T08:01:07.845Z,86.66
2018-09-13T08:03:35.907Z,88.47
2018-09-13T08:06:04.010Z,87.88
2018-09-13T08:08:32.127Z,85.42
2018-09-13T08:11:00.180Z,85.77
2018-09-13T08:13:28.227Z,84.01
2018-09-13T08:15:56.372Z,82.57
2018-09-13T08:18:25.204Z,82.41
2018-09-13T08:20:53.300Z,81.84
2018-09-13T08:23:21.382Z,81.40
2018-09-13T08:25:49.419Z,81.48
2018-09-13T08:28:17.486Z,77.24
2018-09-13T08:30:45.567Z,78.88
2018-09-13T08:33:13.707Z,80.39
2018-09-13T08:35:41.781Z,77.78
2018-09-13T08:38:09.873Z,81.46
2018-09-13T08:40:37.964Z,80.91
2018-09-13T08:43:06.130Z,79.34
2018-09-13T08:45:34.295Z,80.26
2018-09-13T08:48:02.387Z,82.48
2018-09-13T08:50:30.466Z,80.83
2018-09-13T08:52:58.532Z,81.60
2018-09-13T08:55:26.627Z,81.60
2018-09-13T08:57:54.742Z,85.31
2018-09-13T09:00:22.794Z,81.19
2018-09-13T09:02:50.924Z,79.50
2018-09-13T09:05:19.011Z,79.59
2018-09-13T09:07:47.094Z,75.02
2018-09-13T09:10:15.187Z,75.89
2018-09-13T09:12:43.309Z,79.41
2018-09-13T09:15:11.400Z,77.21
2018-09-13T09:17:39.496Z,75.27
2018-09-13T09:20:07.568Z,75.79
2018-09-13T09:22:35.616Z,76.61
2018-09-13T09:25:03.710Z,75.95
2018-09-13T09:27:31.894Z,72.46
2018-09-13T09:29:59.897Z,74.19
2018-09-13T09:32:28.011Z,72.32
2018-09-13T09:34:56.139Z,74.00
2018-09-13T09:37:24.226Z,73.04
2018-09-13T09:39:52.333Z,71.76
2018-09-13T09:42:20.366Z,71.52
2018-09-13T09:44:48.466Z,71.12
2018-09-13T09:47:16.575Z,69.71
2018-09-13T09:49:44.692Z,71.53
2018-09-13T09:52:12.766Z,69.78
2018-09-13T09:54:40.854Z,67.71
2018-09-13T09:57:08.931Z,66.96
2018-09-13T09:59:37.041Z,66.98
2018-09-13T10:02:10.388Z,66.55
2018-09-13T10:04:38.553Z,66.69
2018-09-13T10:07:06.588Z,67.01
2018-09-13T10:09:34.782Z,64.78
2018-09-13T10:12:02.843Z,64.44
2018-09-13T10:14:30.926Z,67.06
2018-09-13T10:17:04.374Z,64.41
2018-09-13T10:19:37.992Z,64.29
2018-09-13T10:22:11.368Z,65.26
2018-09-13T10:24:44.969Z,66.40
2018-09-13T10:27:18.474Z,62.83
2018-09-13T10:29:51.870Z,63.22
2018-09-13T10:33:25.231Z,62.58
2018-09-13T10:35:58.760Z,63.97
2018-09-13T10:38:32.162Z,64.68
2018-09-13T10:41:05.541Z,63.38
2018-09-13T10:43:38.828Z,63.40
2018-09-13T10:46:12.211Z,62.34
2018-09-13T10:48:44.491Z,61.27
2018-09-13T10:51:19.656Z,61.32
2018-09-13T10:53:51.968Z,61.21
2018-09-13T10:56:20.050Z,61.79
2018-09-13T10:58:48.195Z,63.86
2018-09-13T11:01:16.309Z,62.79
2018-09-13T11:03:44.361Z,64.45
2018-09-13T11:06:12.463Z,69.14
2018-09-13T11:08:40.558Z,66.14
2018-09-13T11:11:08.716Z,64.63
2018-09-13T11:13:47.376Z,65.47
2018-09-13T11:16:15.475Z,66.79
2018-09-13T11:18:43.558Z,66.95
2018-09-13T11:21:11.635Z,67.40
2018-09-13T11:23:40.685Z,66.87
2018-09-13T11:26:08.763Z,65.83
2018-09-13T11:28:36.852Z,67.67
2018-09-13T11:31:05.830Z,66.90
2018-09-13T11:33:34.889Z,66.64
2018-09-13T11:36:02.952Z,67.05
2018-09-13T11:38:31.108Z,69.82
2018-09-13T11:40:59.335Z,70.46
2018-09-13T11:43:28.015Z,69.47
2018-09-13T11:45:56.223Z,73.05
2018-09-13T11:48:24.305Z,69.67
2018-09-13T11:50:52.419Z,69.04
2018-09-13T11:53:20.548Z,67.77
2018-09-13T11:55:48.651Z,67.96
2018-09-13T11:58:17.072Z,65.85
2018-09-13T12:00:45.162Z,65.60
2018-09-13T12:03:14.138Z,65.51
2018-09-13T12:05:42.296Z,64.59
2018-09-13T12:08:10.389Z,62.40
2018-09-13T12:10:38.444Z,63.56
2018-09-13T12:13:06.631Z,62.06
2018-09-13T12:15:34.720Z,61.56
2018-09-13T12:18:02.874Z,64.09
2018-09-13T12:20:30.913Z,62.27
2018-09-13T12:22:58.963Z,61.46
2018-09-13T12:25:27.034Z,60.93
2018-09-13T12:27:55.223Z,64.18
2018-09-13T12:30:23.324Z,62.62
2018-09-13T12:32:51.430Z,60.64
2018-09-13T12:35:19.570Z,63.17
2018-09-13T12:37:47.653Z,60.77
2018-09-13T12:40:15.727Z,60.84
2018-09-13T12:42:43.831Z,62.30
2018-09-13T12:45:11.994Z,62.73
2018-09-13T12:47:40.101Z,62.80
2018-09-13T12:50:08.183Z,62.75
2018-09-13T12:52:36.309Z,63.19
2018-09-13T12:55:04.492Z,64.01
2018-09-13T12:57:32.625Z,64.04
2018-09-13T13:00:00.751Z,64.56
2018-09-13T13:02:28.829Z,65.72
2018-09-13T13:04:57.046Z,66.08
2018-09-13T13:07:25.163Z,64.06
2018-09-13T13:09:53.209Z,63.29
2018-09-13T13:12:21.319Z,62.14
2018-09-13T13:14:49.403Z,62.18
2018-09-13T13:17:17.515Z,60.81
2018-09-13T13:19:45.639Z,61.16
2018-09-13T13:22:13.734Z,60.71
2018-09-13T13:24:41.888Z,60.39
2018-09-13T13:27:10.075Z,60.28
2018-09-13T13:29:38.422Z,58.57
2018-09-13T13:32:06.642Z,57.01
2018-09-13T13:34:34.751Z,56.98
2018-09-13T13:37:02.907Z,57.44
2018-09-13T13:39:31.015Z,60.03
2018-09-13T13:41:59.130Z,57.67
2018-09-13T13:44:27.243Z,57.85
2018-09-13T13:46:55.371Z,56.67
2018-09-13T13:49:23.457Z,58.04
2018-09-13T13:51:51.578Z,57.86
2018-09-13T13:54:19.680Z,57.55
2018-09-13T13:56:47.812Z,55.66
2018-09-13T13:59:15.915Z,56.21
2018-09-13T14:01:44.000Z,56.62
2018-09-13T14:04:12.084Z,55.82
2018-09-13T14:06:40.265Z,55.81
2018-09-13T14:09:10.932Z,56.15
2018-09-13T14:11:39.020Z,56.55
2018-09-13T14:14:07.138Z,56.44
2018-09-13T14:16:35.284Z,57.24
2018-09-13T14:19:03.486Z,56.13
2018-09-13T14:21:31.696Z,54.27
2018-09-13T14:23:59.795Z,56.31
2018-09-13T14:26:27.953Z,57.23
2018-09-13T14:28:56.028Z,56.08
2018-09-13T14:31:24.155Z,55.77
2018-09-13T14:33:52.249Z,56.51
2018-09-13T14:36:20.379Z,56.99
2018-09-13T14:38:48.508Z,56.14
2018-09-13T14:41:16.650Z,56.96
2018-09-13T14:43:44.800Z,56.97
2018-09-13T14:46:12.919Z,59.25
2018-09-13T14:48:40.986Z,56.74
2018-09-13T14:51:09.097Z,58.50
2018-09-13T14:53:37.209Z,60.29
2018-09-13T14:56:05.370Z,59.56
2018-09-13T14:58:33.489Z,59.88
2018-09-13T15:01:01.565Z,58.13
2018-09-13T15:03:29.651Z,57.38
2018-09-13T15:05:57.727Z,58.08
2018-09-13T15:08:25.816Z,58.65
2018-09-13T15:10:54.118Z,58.79
2018-09-13T15:13:22.280Z,58.50
2018-09-13T15:15:50.380Z,58.51
2018-09-13T15:18:18.475Z,59.66
2018-09-13T15:20:46.591Z,57.11
2018-09-13T15:23:14.693Z,58.21
2018-09-13T15:25:42.796Z,60.47
2018-09-13T15:28:10.867Z,61.16
2018-09-13T15:30:39.925Z,58.73
2018-09-13T15:33:08.051Z,58.38
2018-09-13T15:35:36.187Z,59.24
2018-09-13T15:38:04.300Z,59.39
2018-09-13T15:40:32.392Z,58.82
2018-09-13T15:43:00.592Z,58.33
2018-09-13T15:45:28.633Z,58.85
2018-09-13T15:47:56.708Z,58.62
2018-09-13T15:50:24.807Z,60.96
2018-09-13T15:52:52.948Z,58.87
2018-09-13T15:55:21.064Z,60.33
2018-09-13T15:57:49.156Z,59.75
2018-09-13T16:00:17.268Z,60.63
2018-09-13T16:02:45.383Z,59.58
2018-09-13T16:05:13.905Z,58.65
2018-09-13T16:07:41.999Z,57.45
2018-09-13T16:10:10.109Z,58.65
2018-09-13T16:12:38.366Z,58.64
2018-09-13T16:15:06.356Z,60.12
2018-09-13T16:17:34.443Z,61.04
2018-09-13T16:21:05.567Z,61.04
2018-09-13T16:23:33.691Z,60.63
2018-09-13T16:26:01.852Z,59.59
2018-09-13T16:28:29.909Z,62.45
2018-09-13T16:30:58.010Z,60.50
2018-09-13T16:33:26.167Z,60.56
2018-09-13T16:35:55.127Z,61.31
2018-09-13T16:38:30.576Z,60.95
2018-09-13T16:42:03.464Z,60.66
2018-09-13T16:44:37.070Z,60.53
2018-09-13T16:47:10.684Z,62.19
2018-09-13T16:49:40.128Z,61.09
2018-09-13T16:52:08.388Z,63.49
2018-09-13T16:54:36.531Z,64.31
2018-09-13T16:57:04.751Z,65.83
2018-09-13T16:59:33.092Z,64.76
2018-09-13T17:02:01.307Z,64.19
2018-09-13T17:04:29.406Z,65.01
2018-09-13T17:06:57.660Z,65.95
2018-09-13T17:09:25.799Z,66.74
2018-09-13T17:11:54.067Z,67.67
2018-09-13T17:14:22.667Z,67.86
2018-09-13T17:16:50.851Z,70.01
2018-09-13T17:19:18.969Z,68.78
2018-09-13T17:21:47.104Z,69.04
2018-09-13T17:24:15.244Z,69.27
2018-09-13T17:26:43.392Z,70.75
2018-09-13T17:29:11.505Z,69.63
2018-09-13T17:31:39.611Z,70.07
2018-09-13T17:34:07.754Z,71.06
2018-09-13T17:36:35.756Z,72.15
2018-09-13T17:39:04.228Z,72.25
2018-09-13T17:41:32.301Z,71.87
2018-09-13T17:44:00.360Z,72.97
2018-09-13T17:46:28.488Z,72.86
2018-09-13T17:48:56.542Z,73.94
2018-09-13T17:51:24.643Z,74.23
2018-09-13T17:53:53.312Z,75.17
2018-09-13T17:56:21.453Z,75.88
2018-09-13T17:58:49.557Z,76.57
2018-09-13T18:01:17.667Z,76.16
2018-09-13T18:03:45.884Z,76.71
2018-09-13T18:06:13.903Z,77.97
2018-09-13T18:08:42.012Z,77.65
2018-09-13T18:11:10.272Z,78.00
2018-09-13T18:13:38.381Z,80.24
2018-09-13T18:16:06.487Z,81.17
2018-09-13T18:18:34.592Z,80.73
2018-09-13T18:21:02.707Z,81.11
2018-09-13T18:23:30.837Z,80.83
2018-09-13T18:25:58.968Z,80.69
2018-09-13T18:28:27.055Z,81.25
2018-09-13T18:30:55.151Z,81.53
2018-09-13T18:33:23.264Z,81.11
2018-09-13T18:35:51.391Z,81.52
2018-09-13T18:38:19.519Z,82.98
2018-09-13T18:40:47.632Z,83.75
2018-09-13T18:43:15.743Z,84.55
2018-09-13T18:45:44.158Z,84.57
2018-09-13T18:48:12.274Z,85.49
2018-09-13T18:50:40.406Z,84.97
2018-09-13T18:53:08.519Z,85.00
2018-09-13T18:55:36.634Z,85.80
2018-09-13T18:58:04.805Z,84.38
2018-09-13T19:00:32.885Z,84.86
2018-09-13T19:03:01.002Z,84.59
2018-09-13T19:05:29.462Z,84.80
2018-09-13T19:07:57.555Z,85.22
2018-09-13T19:10:25.642Z,85.17
2018-09-13T19:12:53.759Z,84.63
2018-09-13T19:15:21.919Z,85.25
2018-09-13T19:17:50.075Z,84.40
2018-09-13T19:20:18.214Z,84.44
2018-09-13T19:22:46.300Z,83.90
2018-09-13T19:25:14.427Z,83.75
2018-09-13T19:27:42.531Z,83.88
2018-09-13T19:30:10.646Z,83.09
2018-09-13T19:32:38.767Z,82.86
2018-09-13T19:35:06.992Z,83.47
2018-09-13T19:37:35.095Z,83.68
2018-09-13T19:40:03.228Z,84.32
2018-09-13T19:42:31.351Z,83.91
2018-09-13T19:44:59.472Z,84.07
2018-09-13T19:47:27.621Z,84.20
2018-09-13T19:49:55.710Z,83.89
2018-09-13T19:52:23.860Z,83.80
2018-09-13T19:54:51.939Z,85.48
2018-09-13T19:57:20.017Z,85.15
2018-09-13T19:59:48.149Z,86.06
2018-09-13T20:02:16.243Z,86.42
2018-09-13T20:04:44.382Z,86.83
2018-09-13T20:07:12.467Z,87.11
2018-09-13T20:09:40.567Z,87.63
2018-09-13T20:12:08.673Z,87.11
2018-09-13T20:14:36.763Z,88.32
2018-09-13T20:17:04.842Z,89.03
2018-09-13T20:19:32.972Z,89.11
2018-09-13T20:22:01.063Z,88.78
2018-09-13T20:24:29.198Z,89.01
2018-09-13T20:26:57.326Z,89.62
2018-09-13T20:29:25.419Z,89.47
2018-09-13T20:31:53.511Z,89.44
2018-09-13T20:34:21.653Z,89.66
2018-09-13T20:36:49.723Z,90.87
2018-09-13T20:39:17.822Z,90.32
2018-09-13T20:41:45.943Z,90.67
2018-09-13T20:44:14.064Z,91.27
2018-09-13T20:46:42.163Z,91.53
2018-09-13T20:49:10.328Z,91.92
2018-09-13T20:51:38.427Z,92.59
2018-09-13T20:54:06.784Z,92.42
2018-09-13T20:56:34.967Z,92.52
2018-09-13T20:59:03.051Z,93.24
2018-09-13T21:01:31.151Z,93.37
2018-09-13T21:03:59.255Z,93.67
2018-09-13T21:06:27.373Z,94.28
2018-09-13T21:08:55.479Z,93.97
2018-09-13T21:11:23.603Z,95.00
2018-09-13T21:13:51.747Z,94.91
2018-09-13T21:16:19.864Z,94.72
2018-09-13T21:18:47.975Z,95.12
2018-09-13T21:21:16.095Z,94.78
2018-09-13T21:23:44.155Z,95.13
2018-09-13T21:26:12.242Z,95.02
2018-09-13T21:28:40.376Z,95.19
2018-09-13T21:31:08.462Z,95.35
2018-09-13T21:33:36.618Z,95.71
2018-09-13T21:36:04.838Z,95.14
2018-09-13T21:38:32.968Z,95.84
2018-09-13T21:41:01.213Z,95.75
2018-09-13T21:43:29.334Z,95.75
2018-09-13T21:45:57.471Z,95.38
2018-09-13T21:48:25.582Z,95.81
2018-09-13T21:50:53.688Z,95.96
2018-09-13T21:53:21.812Z,96.46
2018-09-13T21:55:49.914Z,96.41
2018-09-13T21:58:18.020Z,96.49
2018-09-13T22:00:46.094Z,96.46
2018-09-13T22:03:14.199Z,96.57
2018-09-13T22:05:42.269Z,96.16
2018-09-13T22:08:10.387Z,96.42
2018-09-13T22:10:38.466Z,96.52
2018-09-13T22:13:06.562Z,97.24
2018-09-13T22:15:34.683Z,96.44
2018-09-13T22:18:02.782Z,95.83
2018-09-13T22:20:30.859Z,96.51
2018-09-13T22:22:58.978Z,97.00
2018-09-13T22:25:27.104Z,97.32
2018-09-13T22:27:55.250Z,97.21
2018-09-13T22:30:23.352Z,97.67
2018-09-13T22:32:51.446Z,97.71
2018-09-13T22:35:19.567Z,98.02
2018-09-13T22:37:47.675Z,97.98
2018-09-13T22:40:15.784Z,97.75
2018-09-13T22:42:43.848Z,96.84
2018-09-13T22:45:11.920Z,96.66
2018-09-13T22:47:40.048Z,97.10
2018-09-13T22:50:08.177Z,96.99
2018-09-13T22:52:36.287Z,97.29
2018-09-13T22:55:04.408Z,97.89
2018-09-13T22:57:32.531Z,97.91
2018-09-13T23:00:00.652Z,97.98
2018-09-13T23:02:28.743Z,97.29
2018-09-13T23:04:56.849Z,96.90
2018-09-13T23:07:24.971Z,96.70
2018-09-13T23:09:53.082Z,96.61
2018-09-13T23:12:21.184Z,96.14
2018-09-13T23:14:49.287Z,96.83
2018-09-13T23:17:17.365Z,97.25
2018-09-13T23:19:45.519Z,96.79
2018-09-13T23:22:13.611Z,96.91
2018-09-13T23:24:41.711Z,97.45
2018-09-13T23:27:10.127Z,97.65
2018-09-13T23:29:38.527Z,97.74
2018-09-13T23:32:06.655Z,98.26
2018-09-13T23:34:34.734Z,98.10
2018-09-13T23:37:02.867Z,97.95
2018-09-13T23:39:31.248Z,97.74
2018-09-13T23:41:59.049Z,97.67
2018-09-13T23:44:27.134Z,98.01
2018-09-13T23:46:55.301Z,98.67
2018-09-13T23:49:23.378Z,98.91
2018-09-13T23:51:51.488Z,98.52
2018-09-13T23:54:19.583Z,97.99
2018-09-13T23:56:47.695Z,97.78
2018-09-13T23:59:16.107Z,97.11
